Time;durP1;ratioP1;P1;durP2;ratioP2;P2;SDS_P1;SDS_P2;PMS_P1;PMS_P2;Temp;Humidity;BMP_temperature;BMP_pressure;BME280_temperature;BME280_humidity;BME280_pressure;Samples;Min_cycle;Max_cycle;Signal;HPM_P1;HPM_P2
2024/02/20 00:01:31;;;;;;;;;;;7.70;69.40;;;;;;5020324;28;88002;-46
2024/02/20 00:03:56;;;;;;;;;;;7.70;69.40;;;;;;5017769;28;89084;-45
2024/02/20 00:06:22;;;;;;;;;;;7.70;69.40;;;;;;5021591;28;87419;-46
2024/02/20 00:08:47;;;;;;;;;;;7.60;69.40;;;;;;5018140;27;87097;-46
2024/02/20 00:11:13;;;;;;;;;;;7.60;69.40;;;;;;5013422;28;87559;-45
2024/02/20 00:13:38;;;;;;;;;;;7.60;69.40;;;;;;5014261;28;87222;-45
2024/02/20 00:16:06;;;;;;;;;;;7.60;69.40;;;;;;5022927;28;87101;-45
2024/02/20 00:18:32;;;;;;;;;;;7.60;69.40;;;;;;5015694;28;87666;-45
2024/02/20 00:20:58;;;;;;;;;;;7.60;69.40;;;;;;5017775;28;87001;-45
2024/02/20 00:23:23;;;;;;;;;;;7.60;69.50;;;;;;5025350;28;86870;-45
2024/02/20 00:25:50;;;;;;;;;;;7.60;69.40;;;;;;5013055;28;88451;-45
2024/02/20 00:28:16;;;;;;;;;;;7.50;69.40;;;;;;5013426;28;87005;-45
2024/02/20 00:30:42;;;;;;;;;;;7.60;69.50;;;;;;5018175;28;86997;-45
2024/02/20 00:33:08;;;;;;;;;;;7.50;69.40;;;;;;5016378;28;88719;-45
2024/02/20 00:35:33;;;;;;;;;;;7.50;69.40;;;;;;5020323;28;86969;-45
2024/02/20 00:37:59;;;;;;;;;;;7.50;69.40;;;;;;5017326;28;87427;-45
2024/02/20 00:40:25;;;;;;;;;;;7.50;69.40;;;;;;5019731;28;86812;-45
2024/02/20 00:42:50;;;;;;;;;;;7.50;69.40;;;;;;5016024;28;86775;-46
2024/02/20 00:45:16;;;;;;;;;;;7.50;69.50;;;;;;5013427;28;87406;-45
2024/02/20 00:47:42;;;;;;;;;;;7.50;69.40;;;;;;5017729;28;86997;-45
2024/02/20 00:50:08;;;;;;;;;;;7.50;69.50;;;;;;5013142;28;88805;-45
2024/02/20 00:52:34;;;;;;;;;;;7.50;69.40;;;;;;5017179;28;88754;-45
2024/02/20 00:55:00;;;;;;;;;;;7.50;69.50;;;;;;5016436;28;87025;-45
2024/02/20 00:57:26;;;;;;;;;;;7.40;69.40;;;;;;5022728;28;87760;-45
2024/02/20 00:59:52;;;;;;;;;;;7.40;69.40;;;;;;5019013;28;86954;-45
2024/02/20 01:02:18;;;;;;;;;;;7.40;69.40;;;;;;5015515;28;87635;-45
2024/02/20 01:04:44;;;;;;;;;;;7.40;69.40;;;;;;5014481;28;88216;-45
2024/02/20 01:07:10;;;;;;;;;;;7.40;69.40;;;;;;5021368;28;86206;-45
2024/02/20 01:09:38;;;;;;;;;;;7.40;69.40;;;;;;5016972;28;87007;-45
2024/02/20 01:12:04;;;;;;;;;;;7.40;69.40;;;;;;5009773;28;88012;-45
2024/02/20 01:14:33;;;;;;;;;;;7.40;69.40;;;;;;5016350;28;87945;-45
2024/02/20 01:16:58;;;;;;;;;;;7.40;69.40;;;;;;5018026;28;88970;-45
2024/02/20 01:19:24;;;;;;;;;;;7.40;69.50;;;;;;5021297;28;87091;-45
2024/02/20 01:21:50;;;;;;;;;;;7.30;69.40;;;;;;5016094;28;88333;-45
2024/02/20 01:24:16;;;;;;;;;;;7.30;69.40;;;;;;5014024;28;87535;-45
2024/02/20 01:26:42;;;;;;;;;;;7.40;69.50;;;;;;5018659;28;87030;-45
2024/02/20 01:29:08;;;;;;;;;;;7.30;69.40;;;;;;5013881;28;86997;-45
2024/02/20 01:31:34;;;;;;;;;;;7.30;69.40;;;;;;5012944;28;87040;-45
2024/02/20 01:34:00;;;;;;;;;;;7.30;69.40;;;;;;5015083;28;87014;-45
2024/02/20 01:36:25;;;;;;;;;;;7.30;69.40;;;;;;5020373;28;88605;-45
2024/02/20 01:38:51;;;;;;;;;;;7.30;69.50;;;;;;5011936;28;88608;-45
2024/02/20 01:41:18;;;;;;;;;;;7.30;69.40;;;;;;5022503;28;87035;-45
2024/02/20 01:43:45;;;;;;;;;;;7.20;69.40;;;;;;5012997;28;88242;-45
2024/02/20 01:46:12;;;;;;;;;;;7.20;69.40;;;;;;5014841;28;87105;-45
2024/02/20 01:48:38;;;;;;;;;;;7.20;69.40;;;;;;5020119;28;88504;-45
2024/02/20 01:51:04;;;;;;;;;;;7.20;69.40;;;;;;5012988;28;87709;-46
2024/02/20 01:53:30;;;;;;;;;;;7.20;69.40;;;;;;5015318;28;87027;-45
2024/02/20 01:55:57;;;;;;;;;;;7.20;69.40;;;;;;5018935;28;86831;-46
2024/02/20 01:58:23;;;;;;;;;;;7.20;69.40;;;;;;5014589;28;89920;-46
2024/02/20 02:00:49;;;;;;;;;;;7.20;69.40;;;;;;5014278;28;87041;-45
2024/02/20 02:03:14;;;;;;;;;;;7.20;69.40;;;;;;5015382;28;88106;-45
2024/02/20 02:05:40;;;;;;;;;;;7.20;69.50;;;;;;5014652;28;87087;-45
2024/02/20 02:08:07;;;;;;;;;;;7.20;70.00;;;;;;5020324;28;89838;-45
2024/02/20 02:10:33;;;;;;;;;;;7.20;69.40;;;;;;5012426;28;88661;-45
2024/02/20 02:12:58;;;;;;;;;;;7.20;69.40;;;;;;5015635;28;87470;-45
2024/02/20 02:15:24;;;;;;;;;;;7.10;69.40;;;;;;5019587;28;87813;-45
2024/02/20 02:17:49;;;;;;;;;;;7.10;69.40;;;;;;5010778;28;89016;-45
2024/02/20 02:20:15;;;;;;;;;;;7.10;69.40;;;;;;5016840;28;86344;-45
2024/02/20 02:22:40;;;;;;;;;;;7.10;69.40;;;;;;5015612;28;87662;-45
2024/02/20 02:25:07;;;;;;;;;;;7.10;69.40;;;;;;5019741;28;87457;-45
2024/02/20 02:27:34;;;;;;;;;;;7.10;69.40;;;;;;5013992;28;88051;-46
2024/02/20 02:29:59;;;;;;;;;;;7.10;69.40;;;;;;5016301;28;87000;-45
2024/02/20 02:32:25;;;;;;;;;;;7.10;69.40;;;;;;5010032;28;87047;-45
2024/02/20 02:34:50;;;;;;;;;;;7.10;69.40;;;;;;5013668;28;86821;-45
2024/02/20 02:37:16;;;;;;;;;;;7.00;69.40;;;;;;5017194;28;87639;-45
2024/02/20 02:39:42;;;;;;;;;;;7.10;69.50;;;;;;5015543;28;87061;-46
2024/02/20 02:42:07;;;;;;;;;;;7.00;69.40;;;;;;5019326;28;88712;-45
2024/02/20 02:44:33;;;;;;;;;;;7.00;69.40;;;;;;5020973;28;86681;-46
2024/02/20 02:46:58;;;;;;;;;;;7.00;69.40;;;;;;5018513;28;87001;-45
2024/02/20 02:49:24;;;;;;;;;;;7.00;69.40;;;;;;5013157;28;87475;-46
2024/02/20 02:51:50;;;;;;;;;;;7.00;70.00;;;;;;5015266;28;87993;-45
2024/02/20 02:54:15;;;;;;;;;;;7.00;69.40;;;;;;5013676;28;87591;-45
2024/02/20 02:56:41;;;;;;;;;;;7.00;69.40;;;;;;5010869;28;87424;-46
2024/02/20 02:59:09;;;;;;;;;;;7.00;69.40;;;;;;5015539;28;87030;-44
2024/02/20 03:01:35;;;;;;;;;;;7.00;69.40;;;;;;5017039;28;87916;-44
2024/02/20 03:04:00;;;;;;;;;;;7.00;69.40;;;;;;5018585;28;87548;-44
2024/02/20 03:06:26;;;;;;;;;;;6.90;69.40;;;;;;5021360;28;87058;-44
2024/02/20 03:08:51;;;;;;;;;;;6.90;69.40;;;;;;5018211;28;87128;-45
2024/02/20 03:11:17;;;;;;;;;;;6.90;69.40;;;;;;5018811;28;87043;-44
2024/02/20 03:13:43;;;;;;;;;;;6.90;69.40;;;;;;5012855;28;87870;-44
2024/02/20 03:16:10;;;;;;;;;;;6.90;69.40;;;;;;5016835;28;88295;-44
2024/02/20 03:18:37;;;;;;;;;;;6.90;69.40;;;;;;5017554;28;86859;-44
2024/02/20 03:21:04;;;;;;;;;;;6.90;69.40;;;;;;5015650;28;88589;-44
2024/02/20 03:23:30;;;;;;;;;;;6.90;69.40;;;;;;5016573;28;88460;-44
2024/02/20 03:25:56;;;;;;;;;;;6.90;69.40;;;;;;5018453;28;87026;-45
2024/02/20 03:28:22;;;;;;;;;;;6.90;69.40;;;;;;5020739;28;86992;-45
2024/02/20 03:30:48;;;;;;;;;;;6.90;69.40;;;;;;5016311;28;87110;-44
2024/02/20 03:33:13;;;;;;;;;;;6.90;69.40;;;;;;5021489;28;88024;-44
2024/02/20 03:35:39;;;;;;;;;;;6.80;69.40;;;;;;5013040;28;87351;-44
2024/02/20 03:38:04;;;;;;;;;;;6.80;69.40;;;;;;5017470;28;87032;-44
2024/02/20 03:40:30;;;;;;;;;;;6.80;69.40;;;;;;5015852;28;87840;-44
2024/02/20 03:42:56;;;;;;;;;;;6.80;69.40;;;;;;5016169;28;87999;-44
2024/02/20 03:45:22;;;;;;;;;;;6.80;69.40;;;;;;5017351;28;87032;-45
2024/02/20 03:47:47;;;;;;;;;;;6.80;69.40;;;;;;5020751;28;87374;-44
2024/02/20 03:50:13;;;;;;;;;;;6.80;69.40;;;;;;5018143;28;86961;-44
2024/02/20 03:52:38;;;;;;;;;;;6.80;69.40;;;;;;5020132;28;87724;-44
2024/02/20 03:55:05;;;;;;;;;;;6.80;69.40;;;;;;5018773;28;88204;-44
2024/02/20 03:57:30;;;;;;;;;;;6.80;69.40;;;;;;5018894;28;86480;-44
2024/02/20 03:59:56;;;;;;;;;;;6.70;69.30;;;;;;5012195;28;88661;-44
2024/02/20 04:02:22;;;;;;;;;;;6.80;69.40;;;;;;5016279;28;88518;-44
2024/02/20 04:04:48;;;;;;;;;;;6.70;69.40;;;;;;5015509;28;87968;-44
2024/02/20 04:07:14;;;;;;;;;;;6.70;69.40;;;;;;5019440;28;88969;-44
2024/02/20 04:09:41;;;;;;;;;;;6.70;69.40;;;;;;5016545;28;87545;-45
2024/02/20 04:12:07;;;;;;;;;;;6.70;69.40;;;;;;5022336;28;87063;-45
2024/02/20 04:14:33;;;;;;;;;;;6.70;69.40;;;;;;5015750;28;88540;-44
2024/02/20 04:16:58;;;;;;;;;;;6.70;69.40;;;;;;5014234;28;87058;-44
2024/02/20 04:19:24;;;;;;;;;;;6.70;69.40;;;;;;5017733;28;87492;-44
2024/02/20 04:21:49;;;;;;;;;;;6.70;69.40;;;;;;5022071;28;87095;-44
2024/02/20 04:24:15;;;;;;;;;;;6.70;69.40;;;;;;5024079;28;86966;-44
2024/02/20 04:26:40;;;;;;;;;;;6.70;69.40;;;;;;5020866;28;87336;-44
2024/02/20 04:29:06;;;;;;;;;;;6.70;69.40;;;;;;5017212;28;88674;-44
2024/02/20 04:31:32;;;;;;;;;;;6.70;69.40;;;;;;5018001;28;86975;-44
2024/02/20 04:33:57;;;;;;;;;;;6.60;69.40;;;;;;5018406;28;86945;-44
2024/02/20 04:36:23;;;;;;;;;;;6.70;69.40;;;;;;5019525;28;86974;-44
2024/02/20 04:38:56;;;;;;;;;;;6.60;69.40;;;;;;5015839;28;87570;-44
2024/02/20 04:41:25;;;;;;;;;;;6.70;69.40;;;;;;5015469;28;88759;-44
2024/02/20 04:43:50;;;;;;;;;;;6.60;69.40;;;;;;5017585;28;88042;-44
2024/02/20 04:46:16;;;;;;;;;;;6.60;69.40;;;;;;5016103;28;86573;-44
2024/02/20 04:48:42;;;;;;;;;;;6.60;69.40;;;;;;5019390;28;87527;-44
2024/02/20 04:51:07;;;;;;;;;;;6.60;69.40;;;;;;5019386;28;87124;-44
2024/02/20 04:53:33;;;;;;;;;;;6.60;69.40;;;;;;5022518;28;88063;-44
2024/02/20 04:55:58;;;;;;;;;;;6.60;69.40;;;;;;5016527;28;87087;-44
2024/02/20 04:58:24;;;;;;;;;;;6.60;69.40;;;;;;5016121;28;87767;-44
2024/02/20 05:00:50;;;;;;;;;;;6.60;69.40;;;;;;5015345;28;87923;-44
2024/02/20 05:03:16;;;;;;;;;;;6.60;69.40;;;;;;5019695;28;87060;-44
2024/02/20 05:05:42;;;;;;;;;;;6.50;69.40;;;;;;5021887;28;89364;-44
2024/02/20 05:08:07;;;;;;;;;;;6.50;69.40;;;;;;5015952;28;87391;-44
2024/02/20 05:10:33;;;;;;;;;;;6.50;69.40;;;;;;5010599;28;86247;-45
2024/02/20 05:12:58;;;;;;;;;;;6.50;69.40;;;;;;5012030;28;87048;-45
2024/02/20 05:15:24;;;;;;;;;;;6.50;69.40;;;;;;5016560;28;87469;-44
2024/02/20 05:17:50;;;;;;;;;;;6.50;69.40;;;;;;5014411;28;87900;-44
2024/02/20 05:20:15;;;;;;;;;;;6.50;69.40;;;;;;5014374;28;87812;-44
2024/02/20 05:22:41;;;;;;;;;;;6.50;69.50;;;;;;5015493;28;87048;-44
2024/02/20 05:25:06;;;;;;;;;;;6.50;69.60;;;;;;5015886;28;86861;-44
2024/02/20 05:27:32;;;;;;;;;;;6.60;70.00;;;;;;5015490;28;88310;-44
2024/02/20 05:29:58;;;;;;;;;;;6.50;70.60;;;;;;5015125;28;86938;-44
2024/02/20 05:32:23;;;;;;;;;;;6.60;71.50;;;;;;5017969;28;86920;-44
2024/02/20 05:34:49;;;;;;;;;;;6.70;72.50;;;;;;5014210;28;86895;-44
2024/02/20 05:37:14;;;;;;;;;;;6.70;73.50;;;;;;5016424;28;89282;-44
2024/02/20 05:39:40;;;;;;;;;;;6.80;74.60;;;;;;5014767;28;87329;-44
2024/02/20 05:42:07;;;;;;;;;;;6.90;75.60;;;;;;5013633;28;88014;-44
2024/02/20 05:44:32;;;;;;;;;;;7.00;76.60;;;;;;5014370;28;88941;-45
2024/02/20 05:46:58;;;;;;;;;;;7.10;77.50;;;;;;5014105;28;87678;-44
2024/02/20 05:49:23;;;;;;;;;;;7.20;78.40;;;;;;5020876;28;87067;-44
2024/02/20 05:51:49;;;;;;;;;;;7.20;79.30;;;;;;5018704;28;87755;-44
2024/02/20 05:54:15;;;;;;;;;;;7.30;80.20;;;;;;5011709;28;88466;-44
2024/02/20 05:56:43;;;;;;;;;;;7.50;81.00;;;;;;5016269;28;87845;-44
2024/02/20 05:59:08;;;;;;;;;;;7.50;81.60;;;;;;5021312;28;87718;-44
2024/02/20 06:01:34;;;;;;;;;;;7.60;82.30;;;;;;5016051;28;87489;-44
2024/02/20 06:04:04;;;;;;;;;;;7.70;82.90;;;;;;5017239;28;86983;-44
2024/02/20 06:06:30;;;;;;;;;;;7.90;83.50;;;;;;5015840;28;88774;-44
2024/02/20 06:08:55;;;;;;;;;;;8.00;84.00;;;;;;5014241;28;87624;-44
2024/02/20 06:11:26;;;;;;;;;;;8.10;84.50;;;;;;5017241;28;88126;-44
2024/02/20 06:13:52;;;;;;;;;;;8.20;85.00;;;;;;5015245;28;88404;-44
2024/02/20 06:16:18;;;;;;;;;;;8.30;85.40;;;;;;5014301;28;87051;-44
2024/02/20 06:18:43;;;;;;;;;;;8.40;85.80;;;;;;5014862;28;86971;-44
2024/02/20 06:21:09;;;;;;;;;;;8.50;86.10;;;;;;5012298;28;87906;-44
2024/02/20 06:23:42;;;;;;;;;;;8.70;86.50;;;;;;5016850;28;86831;-44
2024/02/20 06:26:07;;;;;;;;;;;8.80;86.80;;;;;;5014527;28;88323;-44
2024/02/20 06:28:33;;;;;;;;;;;8.90;87.10;;;;;;5015384;28;88701;-44
2024/02/20 06:31:03;;;;;;;;;;;9.00;87.40;;;;;;5012891;28;88112;-45
2024/02/20 06:33:28;;;;;;;;;;;9.10;87.60;;;;;;5012209;28;88455;-44
2024/02/20 06:35:54;;;;;;;;;;;9.20;87.80;;;;;;5012383;28;88143;-44
2024/02/20 06:38:19;;;;;;;;;;;9.30;88.00;;;;;;5013121;28;87015;-44
2024/02/20 06:40:45;;;;;;;;;;;9.50;88.20;;;;;;5019728;28;87803;-44
2024/02/20 06:43:10;;;;;;;;;;;9.60;88.30;;;;;;5018732;28;86951;-44
2024/02/20 06:45:36;;;;;;;;;;;9.70;88.40;;;;;;5012876;28;87705;-44
2024/02/20 06:48:02;;;;;;;;;;;9.70;88.50;;;;;;5014970;28;87874;-43
2024/02/20 06:50:28;;;;;;;;;;;9.90;88.60;;;;;;5014214;28;86954;-44
2024/02/20 06:52:53;;;;;;;;;;;10.00;88.70;;;;;;5013596;28;88415;-44
2024/02/20 06:55:19;;;;;;;;;;;10.10;88.80;;;;;;5013700;28;88111;-44
2024/02/20 06:57:45;;;;;;;;;;;10.20;88.80;;;;;;5014871;28;87724;-44
2024/02/20 07:00:12;;;;;;;;;;;10.30;88.90;;;;;;5014998;28;87491;-44
2024/02/20 07:02:41;;;;;;;;;;;10.40;89.00;;;;;;5020978;28;86903;-44
2024/02/20 07:05:08;;;;;;;;;;;10.50;89.10;;;;;;5015725;28;87709;-44
2024/02/20 07:07:34;;;;;;;;;;;10.60;89.70;;;;;;5011065;28;87173;-44
2024/02/20 07:09:59;;;;;;;;;;;10.70;89.10;;;;;;5014598;28;87102;-44
2024/02/20 07:12:25;;;;;;;;;;;10.80;89.20;;;;;;5014203;28;87758;-44
2024/02/20 07:14:50;;;;;;;;;;;10.90;89.20;;;;;;5014129;28;87096;-44
2024/02/20 07:17:16;;;;;;;;;;;11.00;89.20;;;;;;5014751;28;87042;-44
2024/02/20 07:19:42;;;;;;;;;;;11.10;89.20;;;;;;5013112;28;89389;-44
2024/02/20 07:22:07;;;;;;;;;;;11.20;89.20;;;;;;5010519;28;87626;-44
2024/02/20 07:24:33;;;;;;;;;;;11.30;89.20;;;;;;5014678;28;87008;-44
2024/02/20 07:26:58;;;;;;;;;;;11.40;89.20;;;;;;5014773;28;87315;-44
2024/02/20 07:29:24;;;;;;;;;;;11.50;89.20;;;;;;5018069;28;86963;-44
2024/02/20 07:31:49;;;;;;;;;;;11.60;89.00;;;;;;5006264;28;87573;-44
2024/02/20 07:34:15;;;;;;;;;;;11.70;88.40;;;;;;5009181;28;86992;-44
2024/02/20 07:36:41;;;;;;;;;;;11.80;87.60;;;;;;5013532;28;86985;-44
2024/02/20 07:39:07;;;;;;;;;;;11.90;86.90;;;;;;5016724;28;88448;-44
2024/02/20 07:41:33;;;;;;;;;;;12.00;86.30;;;;;;5016144;28;88796;-44
2024/02/20 07:43:58;;;;;;;;;;;12.00;85.70;;;;;;5016713;28;88716;-44
2024/02/20 07:46:24;;;;;;;;;;;12.10;85.10;;;;;;5016048;28;88545;-44
2024/02/20 07:48:49;;;;;;;;;;;12.20;84.60;;;;;;5016453;28;87040;-44
2024/02/20 07:51:15;;;;;;;;;;;12.20;84.10;;;;;;5018904;28;87694;-44
2024/02/20 07:53:42;;;;;;;;;;;12.20;83.50;;;;;;5020825;28;87783;-44
2024/02/20 07:56:08;;;;;;;;;;;12.20;83.00;;;;;;5019861;28;87719;-44
2024/02/20 07:58:37;;;;;;;;;;;12.30;82.50;;;;;;5015943;28;88498;-44
2024/02/20 08:01:04;;;;;;;;;;;12.30;81.90;;;;;;5011935;28;86248;-44
2024/02/20 08:03:30;;;;;;;;;;;12.30;81.40;;;;;;5016929;28;87373;-44
2024/02/20 08:05:55;;;;;;;;;;;12.30;80.90;;;;;;5021558;28;88519;-44
2024/02/20 08:08:21;;;;;;;;;;;12.30;80.40;;;;;;5016779;28;88886;-44
2024/02/20 08:10:47;;;;;;;;;;;12.30;80.00;;;;;;5016959;28;88289;-44
2024/02/20 08:13:12;;;;;;;;;;;12.30;79.50;;;;;;5020167;28;86955;-44
2024/02/20 08:15:38;;;;;;;;;;;12.30;79.20;;;;;;5017666;28;87000;-44
2024/02/20 08:18:04;;;;;;;;;;;12.30;78.80;;;;;;5016276;28;88623;-44
2024/02/20 08:20:29;;;;;;;;;;;12.30;79.00;;;;;;5017646;28;87606;-44
2024/02/20 08:22:55;;;;;;;;;;;12.20;78.00;;;;;;5017467;28;87235;-44
2024/02/20 08:25:21;;;;;;;;;;;12.20;77.70;;;;;;5018886;28;87303;-44
2024/02/20 08:27:46;;;;;;;;;;;12.20;77.50;;;;;;5015284;28;87525;-44
2024/02/20 08:30:12;;;;;;;;;;;12.20;77.20;;;;;;5017755;28;87986;-44
2024/02/20 08:32:43;;;;;;;;;;;12.20;76.90;;;;;;5024688;27;88707;-44
2024/02/20 08:35:09;;;;;;;;;;;12.20;76.70;;;;;;5015390;28;88773;-44
2024/02/20 08:37:34;;;;;;;;;;;12.20;76.40;;;;;;5016501;28;87403;-44
2024/02/20 08:40:00;;;;;;;;;;;12.10;76.20;;;;;;5018352;28;87924;-44
2024/02/20 08:42:26;;;;;;;;;;;12.10;76.00;;;;;;5013907;28;87722;-44
2024/02/20 08:44:52;;;;;;;;;;;12.10;75.80;;;;;;5015799;28;87434;-44
2024/02/20 08:47:17;;;;;;;;;;;12.10;75.60;;;;;;5018597;28;87092;-44
2024/02/20 08:49:44;;;;;;;;;;;12.00;75.40;;;;;;5020717;28;87095;-44
2024/02/20 08:52:09;;;;;;;;;;;12.00;75.20;;;;;;5016634;28;87072;-44
2024/02/20 08:54:35;;;;;;;;;;;12.00;75.10;;;;;;5011855;28;87002;-44
2024/02/20 08:57:01;;;;;;;;;;;12.00;75.00;;;;;;5011061;28;89327;-44
2024/02/20 08:59:26;;;;;;;;;;;12.00;74.80;;;;;;5015832;28;87767;-44
2024/02/20 09:01:52;;;;;;;;;;;11.90;74.60;;;;;;5017524;28;87001;-45
2024/02/20 09:04:18;;;;;;;;;;;11.90;74.50;;;;;;5011139;28;87375;-44
2024/02/20 09:06:46;;;;;;;;;;;11.80;74.40;;;;;;5018721;28;88189;-44
2024/02/20 09:09:12;;;;;;;;;;;11.80;74.20;;;;;;5014555;28;86958;-45
2024/02/20 09:11:38;;;;;;;;;;;11.80;74.80;;;;;;5019993;28;88501;-44
2024/02/20 09:14:04;;;;;;;;;;;11.80;74.00;;;;;;5015309;28;87859;-44
2024/02/20 09:16:29;;;;;;;;;;;11.80;73.90;;;;;;5017502;28;87632;-44
2024/02/20 09:18:55;;;;;;;;;;;11.70;73.80;;;;;;5025347;28;87121;-44
2024/02/20 09:21:20;;;;;;;;;;;11.70;73.70;;;;;;5016973;28;87928;-44
2024/02/20 09:23:46;;;;;;;;;;;11.70;73.70;;;;;;5012619;28;87690;-44
2024/02/20 09:26:13;;;;;;;;;;;11.70;73.60;;;;;;5015752;28;88504;-44
2024/02/20 09:28:39;;;;;;;;;;;11.60;73.40;;;;;;5020461;28;87953;-44
2024/02/20 09:31:04;;;;;;;;;;;11.60;73.40;;;;;;5014297;28;87561;-44
2024/02/20 09:33:30;;;;;;;;;;;11.60;73.30;;;;;;5019319;28;88327;-44
2024/02/20 09:35:56;;;;;;;;;;;11.60;73.20;;;;;;5021214;28;88478;-44
2024/02/20 09:38:21;;;;;;;;;;;11.60;73.10;;;;;;5014108;28;86610;-44
2024/02/20 09:40:48;;;;;;;;;;;11.50;73.00;;;;;;5018850;28;87000;-44
2024/02/20 09:43:15;;;;;;;;;;;11.50;73.00;;;;;;5013294;28;87678;-44
2024/02/20 09:45:41;;;;;;;;;;;11.50;72.90;;;;;;5014986;28;88632;-44
2024/02/20 09:48:07;;;;;;;;;;;11.50;72.90;;;;;;5014869;28;87771;-44
2024/02/20 09:50:36;;;;;;;;;;;11.50;72.80;;;;;;5012871;28;88573;-44
2024/02/20 09:53:01;;;;;;;;;;;11.40;72.70;;;;;;5013230;28;87045;-44
2024/02/20 09:55:27;;;;;;;;;;;11.40;72.70;;;;;;5018870;28;87080;-44
2024/02/20 09:57:53;;;;;;;;;;;11.40;72.60;;;;;;5010310;28;86898;-44
2024/02/20 10:00:19;;;;;;;;;;;11.30;72.60;;;;;;5014910;28;86920;-44
2024/02/20 10:02:46;;;;;;;;;;;11.30;72.50;;;;;;5016129;28;86630;-44
2024/02/20 10:05:15;;;;;;;;;;;11.30;72.50;;;;;;5013735;28;87847;-44
2024/02/20 10:07:42;;;;;;;;;;;11.30;72.50;;;;;;5014473;28;88092;-44
2024/02/20 10:10:12;;;;;;;;;;;11.30;73.00;;;;;;5012114;28;88374;-44
2024/02/20 10:12:39;;;;;;;;;;;11.20;72.30;;;;;;5013560;28;87071;-44
2024/02/20 10:15:13;;;;;;;;;;;11.20;72.30;;;;;;5017137;28;87989;-44
2024/02/20 10:17:38;;;;;;;;;;;11.20;72.20;;;;;;5012475;28;88634;-44
2024/02/20 10:20:11;;;;;;;;;;;11.20;72.20;;;;;;5015622;28;87023;-44
2024/02/20 10:22:40;;;;;;;;;;;11.20;72.20;;;;;;5016159;28;88437;-44
2024/02/20 10:25:11;;;;;;;;;;;11.10;72.10;;;;;;5023387;28;87005;-44
2024/02/20 10:27:37;;;;;;;;;;;11.10;72.10;;;;;;5016276;28;86858;-45
2024/02/20 10:30:06;;;;;;;;;;;11.10;72.10;;;;;;5015723;28;87774;-44
2024/02/20 10:32:34;;;;;;;;;;;11.10;72.00;;;;;;5016602;28;87871;-44
2024/02/20 10:35:04;;;;;;;;;;;11.00;71.90;;;;;;5020964;27;88300;-44
2024/02/20 10:37:29;;;;;;;;;;;11.00;71.90;;;;;;5017487;28;88678;-44
2024/02/20 10:40:04;;;;;;;;;;;11.00;71.80;;;;;;5017833;28;88012;-44
2024/02/20 10:42:32;;;;;;;;;;;11.00;71.70;;;;;;5015378;28;87706;-44
2024/02/20 10:44:58;;;;;;;;;;;11.00;71.70;;;;;;5015686;28;87692;-44
2024/02/20 10:47:25;;;;;;;;;;;11.00;71.60;;;;;;5018643;28;87884;-44
2024/02/20 10:49:52;;;;;;;;;;;10.90;71.60;;;;;;5011899;28;87470;-44
2024/02/20 10:52:17;;;;;;;;;;;11.00;71.60;;;;;;5018380;28;86237;-44
2024/02/20 10:54:43;;;;;;;;;;;11.00;71.50;;;;;;5015390;28;87184;-45
2024/02/20 10:57:10;;;;;;;;;;;11.00;71.40;;;;;;5014674;28;87427;-44
2024/02/20 10:59:35;;;;;;;;;;;10.90;71.20;;;;;;5016159;28;87804;-44
2024/02/20 11:02:01;;;;;;;;;;;10.90;71.20;;;;;;5015357;28;87434;-44
2024/02/20 11:04:28;;;;;;;;;;;10.90;71.20;;;;;;5015789;28;88154;-44
2024/02/20 11:06:55;;;;;;;;;;;10.80;71.30;;;;;;5015528;28;87825;-44
2024/02/20 11:09:21;;;;;;;;;;;10.80;71.30;;;;;;5015083;28;88647;-45
2024/02/20 11:11:46;;;;;;;;;;;10.80;71.30;;;;;;5016996;28;88527;-44
2024/02/20 11:14:23;;;;;;;;;;;10.80;71.30;;;;;;5012729;28;87841;-44
2024/02/20 11:16:48;;;;;;;;;;;10.70;71.20;;;;;;5013549;28;86752;-44
2024/02/20 11:19:22;;;;;;;;;;;10.70;71.20;;;;;;5017417;28;87788;-44
2024/02/20 11:21:48;;;;;;;;;;;10.70;71.20;;;;;;5022305;28;87627;-44
2024/02/20 11:24:18;;;;;;;;;;;10.70;71.20;;;;;;5011484;28;88647;-44
2024/02/20 11:26:50;;;;;;;;;;;10.60;71.20;;;;;;5016451;28;88665;-44
2024/02/20 11:29:36;;;;;;;;;;;10.60;71.20;;;;;;5020099;27;88333;-44
2024/02/20 11:32:11;;;;;;;;;;;10.60;71.20;;;;;;5015660;28;87096;-45
2024/02/20 11:34:36;;;;;;;;;;;10.60;71.20;;;;;;5017796;28;87860;-44
2024/02/20 11:37:03;;;;;;;;;;;10.60;71.20;;;;;;5019371;28;87527;-44
2024/02/20 11:39:29;;;;;;;;;;;10.50;71.10;;;;;;5020141;28;87744;-44
2024/02/20 11:41:56;;;;;;;;;;;10.50;71.10;;;;;;5018296;28;88058;-44
2024/02/20 11:44:23;;;;;;;;;;;10.50;71.10;;;;;;5019224;28;88086;-44
2024/02/20 11:46:53;;;;;;;;;;;10.50;71.10;;;;;;5021390;28;87767;-44
2024/02/20 11:49:20;;;;;;;;;;;10.50;71.10;;;;;;5016869;28;88906;-44
2024/02/20 11:51:45;;;;;;;;;;;10.50;71.10;;;;;;5015002;28;87057;-44
2024/02/20 11:54:11;;;;;;;;;;;10.40;71.00;;;;;;5019558;28;87323;-44
2024/02/20 11:56:37;;;;;;;;;;;10.40;71.00;;;;;;5019371;28;87413;-44
2024/02/20 11:59:03;;;;;;;;;;;10.40;71.00;;;;;;5022049;28;87696;-44
2024/02/20 12:01:29;;;;;;;;;;;10.40;71.00;;;;;;5019333;27;87947;-44
2024/02/20 12:03:56;;;;;;;;;;;10.40;71.00;;;;;;5012454;28;88512;-44
2024/02/20 12:06:26;;;;;;;;;;;10.40;71.00;;;;;;5020884;28;86369;-44
2024/02/20 12:09:01;;;;;;;;;;;10.30;70.90;;;;;;5017751;28;88827;-44
2024/02/20 12:11:26;;;;;;;;;;;10.30;70.90;;;;;;5015404;28;87027;-44
2024/02/20 12:13:53;;;;;;;;;;;10.30;70.90;;;;;;5014602;28;87942;-44
2024/02/20 12:16:26;;;;;;;;;;;10.30;70.90;;;;;;5020754;28;87810;-45
2024/02/20 12:18:52;;;;;;;;;;;10.30;70.90;;;;;;5015780;28;87001;-44
2024/02/20 12:21:25;;;;;;;;;;;10.30;70.90;;;;;;5014355;28;88408;-45
2024/02/20 12:23:53;;;;;;;;;;;10.20;70.80;;;;;;5018346;28;88659;-44
2024/02/20 12:26:19;;;;;;;;;;;10.20;70.90;;;;;;5017476;28;86983;-44
2024/02/20 12:28:45;;;;;;;;;;;10.20;70.90;;;;;;5018502;28;87919;-44
2024/02/20 12:31:11;;;;;;;;;;;10.20;70.90;;;;;;5017615;28;86346;-44
2024/02/20 12:33:37;;;;;;;;;;;10.20;70.80;;;;;;5014259;28;86861;-44
2024/02/20 12:36:02;;;;;;;;;;;10.10;70.80;;;;;;5015829;28;87420;-44
2024/02/20 12:38:31;;;;;;;;;;;10.20;70.80;;;;;;5012525;28;87926;-44
2024/02/20 12:40:57;;;;;;;;;;;10.10;70.80;;;;;;5015927;28;88783;-44
2024/02/20 12:43:22;;;;;;;;;;;10.10;70.80;;;;;;5018046;28;88569;-44
2024/02/20 12:45:48;;;;;;;;;;;10.10;70.80;;;;;;5020877;28;86971;-44
2024/02/20 12:48:14;;;;;;;;;;;10.10;70.80;;;;;;5013025;28;88185;-44
2024/02/20 12:50:39;;;;;;;;;;;10.00;70.70;;;;;;5024867;28;87123;-44
2024/02/20 12:53:05;;;;;;;;;;;10.10;70.80;;;;;;5013199;28;86899;-44
2024/02/20 12:55:34;;;;;;;;;;;10.00;70.70;;;;;;5016797;28;87058;-44
2024/02/20 12:58:01;;;;;;;;;;;10.00;70.70;;;;;;5014340;28;87035;-44
2024/02/20 13:00:27;;;;;;;;;;;10.00;70.70;;;;;;5016563;28;86920;-44
2024/02/20 13:02:56;;;;;;;;;;;10.00;70.70;;;;;;5017738;28;88298;-44
2024/02/20 13:05:22;;;;;;;;;;;10.00;70.70;;;;;;5010997;28;87180;-44
2024/02/20 13:07:48;;;;;;;;;;;10.00;70.70;;;;;;5014036;28;87852;-44
2024/02/20 13:10:15;;;;;;;;;;;9.90;70.60;;;;;;5022080;28;87910;-44
2024/02/20 13:12:41;;;;;;;;;;;9.90;70.60;;;;;;5015940;28;88026;-44
2024/02/20 13:15:08;;;;;;;;;;;9.90;70.60;;;;;;5014998;28;88667;-44
2024/02/20 13:17:33;;;;;;;;;;;9.90;70.60;;;;;;5015331;28;87312;-44
2024/02/20 13:20:01;;;;;;;;;;;9.90;70.60;;;;;;5012855;28;86722;-44
2024/02/20 13:22:26;;;;;;;;;;;9.90;70.60;;;;;;5014901;28;88188;-45
2024/02/20 13:24:54;;;;;;;;;;;9.90;70.60;;;;;;5014230;28;87032;-45
2024/02/20 13:27:19;;;;;;;;;;;9.90;70.60;;;;;;5018073;28;87928;-44
2024/02/20 13:29:45;;;;;;;;;;;9.90;70.60;;;;;;5016934;28;88639;-44
2024/02/20 13:32:12;;;;;;;;;;;9.90;70.60;;;;;;5023136;28;87210;-44
2024/02/20 13:34:38;;;;;;;;;;;9.80;70.50;;;;;;5013476;28;88451;-44
2024/02/20 13:37:05;;;;;;;;;;;9.80;70.50;;;;;;5017051;27;87133;-44
2024/02/20 13:39:30;;;;;;;;;;;9.80;70.50;;;;;;5016800;28;87004;-44
2024/02/20 13:41:56;;;;;;;;;;;9.80;70.50;;;;;;5013866;28;88468;-44
2024/02/20 13:44:22;;;;;;;;;;;9.80;70.50;;;;;;5015487;28;86212;-44
2024/02/20 13:46:49;;;;;;;;;;;9.80;70.50;;;;;;5012692;28;87445;-44
2024/02/20 13:49:22;;;;;;;;;;;9.80;70.50;;;;;;5012113;28;88530;-44
2024/02/20 13:51:48;;;;;;;;;;;9.70;70.40;;;;;;5014290;28;88953;-44
2024/02/20 13:54:13;;;;;;;;;;;9.70;70.40;;;;;;5020957;28;87682;-44
2024/02/20 13:56:39;;;;;;;;;;;9.70;70.40;;;;;;5016404;28;87105;-44
2024/02/20 13:59:04;;;;;;;;;;;9.80;70.50;;;;;;5014425;28;87587;-44
2024/02/20 14:01:30;;;;;;;;;;;9.70;70.40;;;;;;5016488;28;87535;-44
2024/02/20 14:03:55;;;;;;;;;;;9.70;70.40;;;;;;5011892;28;87107;-44
2024/02/20 14:06:22;;;;;;;;;;;9.70;70.40;;;;;;5014548;28;86919;-44
2024/02/20 14:08:48;;;;;;;;;;;9.70;70.40;;;;;;5020198;28;87789;-45
2024/02/20 14:11:17;;;;;;;;;;;9.70;70.40;;;;;;5014480;28;87160;-44
2024/02/20 14:13:46;;;;;;;;;;;9.70;70.40;;;;;;5012323;28;88061;-44
2024/02/20 14:16:14;;;;;;;;;;;9.60;70.30;;;;;;5018814;28;89270;-45
2024/02/20 14:18:40;;;;;;;;;;;9.60;70.30;;;;;;5015212;28;87872;-44